Time;durP1;ratioP1;P1;durP2;ratioP2;P2;SDS_P1;SDS_P2;PMS_P1;PMS_P2;Temp;Humidity;BMP_temperature;BMP_pressure;BME280_temperature;BME280_humidity;BME280_pressure;Samples;Min_cycle;Max_cycle;Signal;HPM_P1;HPM_P2
2021/11/02 00:00:06;;;;;;;46.77;27.67;;;;;;;4.63;74.39;99272.57;1755533;80;25445;-63
2021/11/02 00:02:34;;;;;;;43.65;25.75;;;;;;;4.60;74.24;99272.62;1777147;80;25905;-64
2021/11/02 00:05:01;;;;;;;43.42;24.32;;;;;;;4.56;74.35;99270.82;1776956;80;25544;-63
2021/11/02 00:07:28;;;;;;;46.75;25.23;;;;;;;4.55;74.15;99263.89;1750289;82;25432;-63
2021/11/02 00:10:01;;;;;;;46.28;25.00;;;;;;;4.53;74.22;99265.52;1750169;82;27421;-63
2021/11/02 00:12:30;;;;;;;45.05;25.45;;;;;;;4.54;74.26;99271.11;1745073;80;25568;-63
2021/11/02 00:14:58;;;;;;;42.73;25.02;;;;;;;4.55;74.23;99269.25;1748968;82;27532;-63
2021/11/02 00:17:27;;;;;;;50.67;27.10;;;;;;;4.57;74.42;99271.88;1748846;82;25765;-64
2021/11/02 00:19:57;;;;;;;38.75;23.95;;;;;;;4.56;74.72;99266.80;1748826;82;25650;-63
2021/11/02 00:22:23;;;;;;;40.57;23.87;;;;;;;4.54;74.66;99257.72;1748765;82;25847;-64
2021/11/02 00:27:24;;;;;;;42.80;23.85;;;;;;;4.53;74.57;99260.17;1749013;81;27432;-64
2021/11/02 00:29:52;;;;;;;;;;;;;;;4.55;74.72;99252.63;1751443;82;25512;-63
2021/11/02 00:32:19;;;;;;;44.73;24.92;;;;;;;4.52;74.66;99249.19;1749088;82;25385;-63
2021/11/02 00:34:46;;;;;;;46.18;25.82;;;;;;;4.49;74.67;99250.59;1748907;82;26590;-63
2021/11/02 00:37:12;;;;;;;45.43;25.75;;;;;;;4.46;74.83;99240.98;1748996;82;25705;-64
2021/11/02 00:39:42;;;;;;;45.30;24.35;;;;;;;4.46;74.94;99244.48;1748963;82;27409;-64
2021/11/02 00:42:11;;;;;;;50.45;24.87;;;;;;;4.46;75.36;99240.46;1748797;82;25389;-64
2021/11/02 00:44:39;;;;;;;44.67;26.95;;;;;;;4.43;75.00;99237.58;1748964;82;25567;-64
2021/11/02 00:47:07;;;;;;;47.15;26.00;;;;;;;4.45;75.00;99228.70;1748937;82;25622;-63
2021/11/02 00:49:34;;;;;;;45.05;25.25;;;;;;;4.44;75.00;99235.12;1748988;82;25427;-64
2021/11/02 00:52:02;;;;;;;44.35;26.60;;;;;;;4.44;74.96;99237.81;1748882;82;29668;-63
2021/11/02 00:54:29;;;;;;;46.18;26.25;;;;;;;4.44;74.93;99240.48;1748867;82;25698;-63
2021/11/02 00:56:56;;;;;;;44.85;26.17;;;;;;;4.41;74.78;99235.19;1748986;82;25587;-63
2021/11/02 00:59:22;;;;;;;50.73;28.62;;;;;;;4.37;74.76;99234.17;1749018;81;25577;-64
2021/11/02 01:01:48;;;;;;;53.60;29.37;;;;;;;4.37;74.95;99238.19;1749122;81;25216;-63
2021/11/02 01:04:15;;;;;;;51.48;28.32;;;;;;;4.33;74.93;99234.52;1749070;82;27407;-62
2021/11/02 01:06:41;;;;;;;53.55;29.63;;;;;;;4.33;74.74;99238.53;1749000;81;25403;-63
2021/11/02 01:09:08;;;;;;;48.75;28.47;;;;;;;4.30;74.65;99227.06;1749068;82;25490;-62
2021/11/02 01:11:35;;;;;;;53.20;31.25;;;;;;;4.26;74.50;99233.55;1749333;82;25822;-64
2021/11/02 01:14:04;;;;;;;48.95;28.25;;;;;;;4.21;74.82;99236.31;1750388;81;25532;-63
2021/11/02 01:16:31;;;;;;;50.95;27.62;;;;;;;4.17;74.77;99229.15;1750535;82;28052;-63
2021/11/02 01:18:57;;;;;;;44.30;27.00;;;;;;;4.13;74.30;99222.25;1750314;82;25393;-63
2021/11/02 01:21:24;;;;;;;50.55;27.95;;;;;;;4.07;74.42;99218.05;1750382;82;25370;-63
2021/11/02 01:23:50;;;;;;;52.75;28.65;;;;;;;4.02;74.79;99216.27;1750429;81;26285;-62
2021/11/02 01:26:18;;;;;;;51.53;28.75;;;;;;;3.95;74.52;99211.84;1750490;82;25382;-62
2021/11/02 01:28:44;;;;;;;55.20;29.95;;;;;;;3.91;74.69;99208.14;1750391;82;27514;-62
2021/11/02 01:31:12;;;;;;;54.77;28.23;;;;;;;3.87;74.91;99205.25;1750328;82;25548;-63
2021/11/02 01:33:40;;;;;;;48.30;27.95;;;;;;;3.83;75.02;99199.42;1750376;82;25398;-63
2021/11/02 01:36:09;;;;;;;52.90;29.00;;;;;;;3.78;75.03;99195.49;1750359;81;25457;-63
2021/11/02 01:38:36;;;;;;;57.13;30.65;;;;;;;3.70;75.11;99192.39;1750573;82;25426;-63
2021/11/02 01:41:05;;;;;;;54.95;29.45;;;;;;;3.67;75.48;99186.28;1750336;82;27489;-63
2021/11/02 01:43:32;;;;;;;57.10;28.92;;;;;;;3.62;75.58;99174.88;1750329;82;25578;-63
2021/11/02 01:46:01;;;;;;;53.38;28.50;;;;;;;3.56;75.87;99164.80;1750398;82;25422;-62
2021/11/02 01:48:29;;;;;;;57.73;29.85;;;;;;;3.51;75.86;99164.33;1750512;81;25497;-62
2021/11/02 01:50:55;;;;;;;59.42;30.50;;;;;;;3.47;76.04;99165.97;1750377;82;25621;-62
2021/11/02 01:53:22;;;;;;;50.83;28.25;;;;;;;3.43;76.44;99164.19;1750475;82;28044;-64
2021/11/02 01:55:49;;;;;;;53.28;29.72;;;;;;;3.41;76.47;99160.45;1750322;81;25769;-62
2021/11/02 01:58:16;;;;;;;52.25;29.15;;;;;;;3.36;76.74;99163.98;1750390;82;25491;-62
2021/11/02 02:00:48;;;;;;;57.08;30.35;;;;;;;3.33;76.68;99159.77;1750303;82;27630;-63
2021/11/02 02:03:44;;;;;;;57.53;30.75;;;;;;;3.31;76.69;99162.72;1749107;82;25460;-62
2021/11/02 02:06:35;;;;;;;52.20;29.55;;;;;;;3.29;77.23;99163.55;1749286;82;27612;-63
2021/11/02 02:09:09;;;;;;;57.10;29.20;;;;;;;3.28;76.98;99163.84;1750275;82;25656;-62
2021/11/02 02:12:13;;;;;;;53.63;29.15;;;;;;;3.24;77.19;99170.31;1749751;81;25597;-62
2021/11/02 02:15:06;;;;;;;51.85;28.73;;;;;;;3.23;77.05;99163.91;1748877;82;25490;-62
2021/11/02 02:17:37;;;;;;;52.53;28.25;;;;;;;3.23;77.05;99161.23;1688566;84;25744;-62
2021/11/02 02:20:08;;;;;;;55.48;30.75;;;;;;;3.23;77.65;99158.56;1666406;86;27474;-62
2021/11/02 02:23:04;;;;;;;50.78;28.90;;;;;;;3.20;77.53;99160.47;1718168;83;25574;-63
2021/11/02 02:25:53;;;;;;;57.78;29.67;;;;;;;3.16;77.05;99166.38;1702705;84;25785;-62
2021/11/02 02:28:33;;;;;;;52.65;28.32;;;;;;;3.15;77.56;99172.01;1598265;89;32628;-63
2021/11/02 02:31:05;;;;;;;62.17;30.35;;;;;;;3.14;77.31;99165.09;1598454;89;25503;-62
2021/11/02 02:33:42;;;;;;;48.08;27.95;;;;;;;3.10;77.63;99159.53;1598318;89;27549;-63
2021/11/02 02:36:10;;;;;;;47.50;27.15;;;;;;;3.07;77.86;99149.41;1598129;89;25729;-63
2021/11/02 02:38:41;;;;;;;52.17;27.93;;;;;;;3.07;77.60;99149.41;1598371;89;25648;-63
2021/11/02 02:41:09;;;;;;;52.27;28.62;;;;;;;3.06;77.58;99143.02;1598340;89;25658;-62
2021/11/02 02:43:40;;;;;;;52.13;30.17;;;;;;;3.05;77.59;99142.23;1598370;89;25553;-62
2021/11/02 02:46:09;;;;;;;57.55;28.90;;;;;;;3.02;77.81;99133.45;1598374;89;27485;-62
2021/11/02 02:48:37;;;;;;;54.83;30.23;;;;;;;3.06;77.77;99141.68;1598386;89;25721;-62
2021/11/02 02:51:05;;;;;;;54.73;29.70;;;;;;;3.03;77.78;99144.40;1598308;89;25469;-62
2021/11/02 02:53:32;;;;;;;56.48;28.12;;;;;;;3.01;78.19;99145.20;1588197;89;26040;-63
2021/11/02 02:56:03;;;;;;;50.43;26.82;;;;;;;2.99;78.20;99136.69;1569982;91;25722;-62
2021/11/02 02:58:34;;;;;;;49.50;28.32;;;;;;;2.98;78.24;99133.23;1585522;90;27536;-62
2021/11/02 03:01:02;;;;;;;58.90;30.17;;;;;;;3.00;77.86;99138.29;1585736;90;25854;-62
2021/11/02 03:03:30;;;;;;;52.90;29.45;;;;;;;3.03;78.20;99134.23;1582778;90;25757;-62
2021/11/02 03:06:01;;;;;;;50.15;28.12;;;;;;;3.01;78.36;99128.39;1708200;82;25639;-62
2021/11/02 03:08:29;;;;;;;53.60;28.23;;;;;;;3.04;78.30;99131.83;1750311;82;25625;-62
2021/11/02 03:10:57;;;;;;;56.40;28.47;;;;;;;3.06;78.34;99133.66;1750245;82;27528;-62
2021/11/02 03:13:28;;;;;;;49.90;26.62;;;;;;;3.06;78.26;99139.80;1750154;82;25685;-62
2021/11/02 03:16:04;;;;;;;50.05;27.42;;;;;;;3.07;78.10;99136.05;1750332;81;25527;-62
2021/11/02 03:44:12;;;;;;;50.55;29.90;;;;;;;3.18;78.05;99122.82;1750317;82;25547;-63
2021/11/02 03:54:28;;;;;;;54.15;28.17;;;;;;;3.09;77.75;99122.41;1750345;81;27595;-63
2021/11/02 03:54:51;;;;;;;57.67;30.25;;;;;;;3.03;77.82;99116.34;1746011;82;25471;-62
2021/11/02 04:00:20;;;;;;;57.10;29.75;;;;;;;2.99;77.74;99122.78;1750304;82;25625;-63
2021/11/02 04:22:51;;;;;;;54.40;29.30;;;;;;;2.71;77.89;99122.36;1748842;82;25595;-63
2021/11/02 05:11:10;;;;;;;57.35;30.08;;;;;;;2.24;79.54;99078.80;1751506;81;25599;-63
2021/11/02 05:48:57;;;;;;;58.75;31.65;;;;;;;2.13;80.46;99076.52;1728831;83;25598;-63
2021/11/02 05:51:39;;;;;;;56.25;31.82;;;;;;;2.13;80.75;99069.33;1728146;82;25625;-63
2021/11/02 05:56:57;;;;;;;51.55;30.52;;;;;;;2.14;80.87;99074.11;1728819;83;25430;-63
2021/11/02 06:01:57;;;;;;;65.12;33.85;;;;;;;2.16;81.20;99082.11;1747084;81;25547;-64
2021/11/02 06:07:28;;;;;;;58.20;31.82;;;;;;;2.20;81.32;99077.00;1753690;81;27596;-62
2021/11/02 06:09:57;;;;;;;66.77;32.42;;;;;;;2.22;81.64;99074.28;1752599;81;25595;-62
2021/11/02 06:29:30;;;;;;;65.32;34.67;;;;;;;2.61;82.36;99085.33;1594897;87;25830;-64
2021/11/02 06:32:08;;;;;;;67.53;35.68;;;;;;;2.74;82.88;99081.70;1635807;86;25615;-64
2021/11/02 06:34:53;;;;;;;61.77;33.20;;;;;;;2.85;82.65;99094.41;1641719;87;27527;-64
2021/11/02 07:17:27;;;;;;;57.60;32.75;;;;;;;5.06;79.28;99107.52;1658834;86;27606;-65
2021/11/02 07:19:57;;;;;;;54.67;32.67;;;;;;;5.38;80.39;99109.75;1658349;85;25701;-66
2021/11/02 08:48:17;;;;;;;41.77;27.42;;;;;;;9.42;66.06;99063.96;1675667;85;25584;-63
2021/11/02 08:50:53;;;;;;;43.28;28.45;;;;;;;9.53;64.45;99059.75;1676052;85;25666;-63
2021/11/02 08:53:22;;;;;;;45.30;27.37;;;;;;;9.65;65.06;99066.29;1675825;85;27488;-63
2021/11/02 08:55:51;;;;;;;44.60;28.77;;;;;;;9.68;63.76;99066.41;1675780;85;25581;-64
2021/11/02 08:58:28;;;;;;;43.70;27.35;;;;;;;9.59;63.77;99067.63;1651808;85;29917;-65
2021/11/02 09:01:02;;;;;;;49.85;28.67;;;;;;;9.46;63.22;99067.56;1624159;88;25742;-64
2021/11/02 09:03:33;;;;;;;40.40;27.50;;;;;;;9.37;64.19;99059.33;1648949;86;25697;-64
2021/11/02 09:06:05;;;;;;;43.23;26.68;;;;;;;9.46;64.42;99067.56;1654534;86;27487;-64
2021/11/02 09:08:41;;;;;;;40.92;26.77;;;;;;;9.49;64.38;99066.91;1654424;86;25766;-64
2021/11/02 09:11:08;;;;;;;41.80;27.15;;;;;;;9.53;64.40;99068.38;1652202;86;25781;-64
2021/11/02 09:13:36;;;;;;;45.95;27.95;;;;;;;9.55;64.23;99071.53;1653529;85;25781;-64
2021/11/02 09:16:04;;;;;;;41.68;27.65;;;;;;;9.60;64.37;99073.25;1675773;85;25400;-63
2021/11/02 09:18:31;;;;;;;45.12;29.57;;;;;;;9.68;64.32;99071.81;1675696;85;27562;-64
2021/11/02 09:20:59;;;;;;;41.33;27.82;;;;;;;9.88;65.85;99069.41;1675794;85;25680;-64
2021/11/02 09:23:29;;;;;;;47.90;26.97;;;;;;;10.75;67.50;99060.27;1677675;83;25802;-65
2021/11/02 09:25:57;;;;;;;36.63;24.95;;;;;;;12.21;65.29;99059.27;1708163;83;25724;-64
2021/11/02 09:28:25;;;;;;;39.60;26.50;;;;;;;13.59;63.65;99051.04;1691906;84;25650;-63
2021/11/02 09:30:53;;;;;;;37.80;25.02;;;;;;;14.71;57.08;99051.00;1693245;84;28112;-65
2021/11/02 09:33:21;;;;;;;35.08;25.55;;;;;;;15.57;58.69;99039.61;1692912;84;25720;-63
2021/11/02 09:36:01;;;;;;;39.63;25.40;;;;;;;16.75;55.27;99043.38;1693360;84;25605;-63
2021/11/02 09:38:35;;;;;;;33.23;23.83;;;;;;;17.59;55.41;99041.80;1693297;84;25777;-64
2021/11/02 09:41:30;;;;;;;35.63;26.27;;;;;;;18.40;51.40;99030.77;1693323;84;26162;-64
2021/11/02 09:44:13;;;;;;;35.05;24.05;;;;;;;18.96;51.04;99025.61;1693445;84;27477;-64
2021/11/02 09:47:26;;;;;;;33.28;24.87;;;;;;;19.91;48.75;99032.23;1693082;84;25736;-64
2021/11/02 09:50:34;;;;;;;28.95;22.98;;;;;;;20.03;46.35;99028.99;1688487;84;25686;-63
2021/11/02 09:53:36;;;;;;;30.45;23.45;;;;;;;19.61;45.50;99021.20;1693650;84;25684;-64
2021/11/02 09:56:17;;;;;;;35.30;25.08;;;;;;;18.95;42.72;99024.06;1691613;84;25542;-64
2021/11/02 09:59:24;;;;;;;33.33;24.10;;;;;;;18.15;44.00;99026.70;1693370;84;27734;-64
2021/11/02 10:02:24;;;;;;;32.80;24.85;;;;;;;17.69;45.95;99021.90;1694407;84;25570;-65
2021/11/02 10:05:04;;;;;;;31.05;24.15;;;;;;;17.30;46.40;99027.48;1691441;84;25741;-64
2021/11/02 10:07:38;;;;;;;32.98;24.20;;;;;;;16.97;46.86;99025.76;1693710;84;25671;-65
2021/11/02 10:10:41;;;;;;;36.15;23.90;;;;;;;17.33;47.59;99025.34;1675696;84;25907;-64
2021/11/02 10:13:41;;;;;;;29.65;23.20;;;;;;;17.21;47.20;99022.94;1595648;88;28147;-65
2021/11/02 10:16:42;;;;;;;34.08;22.22;;;;;;;17.01;46.42;99021.68;1594530;88;25828;-66
2021/11/02 10:19:31;;;;;;;32.10;22.37;;;;;;;16.68;46.41;99021.47;1594138;90;25859;-65
2021/11/02 10:22:35;;;;;;;32.03;22.48;;;;;;;16.72;46.89;99020.94;1592541;88;25818;-66
2021/11/02 10:25:32;;;;;;;30.43;22.13;;;;;;;17.54;47.50;99018.37;1590405;90;25704;-65
2021/11/02 10:28:28;;;;;;;30.90;21.73;;;;;;;18.46;46.99;99012.02;1590743;90;27558;-65
2021/11/02 10:31:14;;;;;;;29.85;21.80;;;;;;;19.70;45.76;99008.41;1582706;90;25828;-65
2021/11/02 10:33:51;;;;;;;33.98;21.65;;;;;;;20.76;43.83;99011.31;1594583;90;25787;-65
2021/11/02 10:36:35;;;;;;;29.10;21.65;;;;;;;21.54;42.18;99012.34;1586622;90;25745;-63
2021/11/02 10:39:08;;;;;;;32.85;22.10;;;;;;;20.79;40.12;99013.22;1583932;89;25630;-64
2021/11/02 10:41:45;;;;;;;25.95;19.92;;;;;;;20.15;40.34;99007.91;1585008;90;27582;-64
2021/11/02 10:44:23;;;;;;;29.12;20.90;;;;;;;20.56;41.20;98997.36;1587200;90;25885;-64
2021/11/02 10:47:07;;;;;;;28.47;20.25;;;;;;;20.85;38.64;99001.38;1587068;90;25703;-64
2021/11/02 10:49:45;;;;;;;27.30;20.95;;;;;;;20.25;37.35;99001.38;1620567;84;25864;-64
2021/11/02 10:52:13;;;;;;;29.87;21.20;;;;;;;19.37;38.84;98995.48;1703065;84;25307;-65
2021/11/02 10:54:48;;;;;;;27.90;21.70;;;;;;;18.48;38.54;98991.27;1704992;84;29615;-65
2021/11/02 10:57:38;;;;;;;29.40;21.23;;;;;;;17.66;39.63;98998.86;1677882;84;25505;-64
2021/11/02 11:00:10;;;;;;;27.75;20.55;;;;;;;16.85;40.66;98989.23;1705358;84;25639;-65
2021/11/02 11:02:38;;;;;;;29.15;20.12;;;;;;;16.28;41.73;98995.88;1705325;84;26003;-65
2021/11/02 11:05:08;;;;;;;29.95;21.35;;;;;;;15.72;42.57;98974.55;1705505;84;25744;-64
2021/11/02 11:07:41;;;;;;;28.45;21.20;;;;;;;15.25;43.17;98972.70;1705242;83;27466;-66
2021/11/02 11:10:10;;;;;;;31.23;20.97;;;;;;;14.78;43.81;98979.55;1705329;84;25555;-65
2021/11/02 11:12:55;;;;;;;27.65;20.80;;;;;;;14.36;44.80;98981.26;1705436;82;29957;-65
2021/11/02 11:15:27;;;;;;;28.40;20.80;;;;;;;14.14;45.61;98973.34;1705128;84;26239;-63
2021/11/02 11:18:06;;;;;;;28.30;20.08;;;;;;;13.98;46.51;98970.78;1705167;84;25735;-63
2021/11/02 11:20:41;;;;;;;30.82;21.52;;;;;;;13.97;46.94;98973.86;1705458;84;27539;-65
2021/11/02 11:23:13;;;;;;;30.40;20.08;;;;;;;13.68;47.03;98976.67;1704331;84;25666;-64
2021/11/02 11:25:51;;;;;;;31.48;20.30;;;;;;;13.44;47.38;98969.84;1698934;82;25460;-65
2021/11/02 11:28:20;;;;;;;31.62;20.43;;;;;;;13.24;47.85;98966.92;1705317;84;25660;-64
2021/11/02 11:30:47;;;;;;;;;;;;;;;13.06;48.37;98967.95;1707748;84;25409;-65
2021/11/02 11:33:19;;;;;;;31.87;20.40;;;;;;;12.93;48.94;98971.94;1735698;82;27166;-64
2021/11/02 11:35:49;;;;;;;28.15;19.80;;;;;;;12.83;49.30;98964.56;1735689;82;25668;-64
2021/11/02 11:38:16;;;;;;;28.38;20.25;;;;;;;12.70;49.60;98972.61;1735561;82;25534;-64
2021/11/02 11:40:45;;;;;;;30.50;20.08;;;;;;;12.59;49.84;98972.97;1735727;82;25428;-64
2021/11/02 11:43:14;;;;;;;31.55;21.02;;;;;;;12.44;50.00;98972.64;1735721;82;25419;-64
2021/11/02 11:45:52;;;;;;;;;;;;;;;12.32;50.43;98976.83;1738148;82;27512;-65
2021/11/02 11:48:21;;;;;;;34.60;21.42;;;;;;;12.21;50.88;98980.66;1735368;81;25453;-64
2021/11/02 11:50:49;;;;;;;35.90;22.30;;;;;;;12.13;51.38;98976.20;1735825;82;25728;-66
2021/11/02 11:53:25;;;;;;;33.18;22.50;;;;;;;12.07;52.65;98981.11;1735614;82;25549;-69
2021/11/02 11:56:11;;;;;;;34.25;22.50;;;;;;;11.92;52.49;98970.48;1735836;82;25417;-71
2021/11/02 11:58:56;;;;;;;37.45;23.35;;;;;;;11.80;52.57;98967.03;1735914;82;27568;-71
2021/11/02 12:01:46;;;;;;;30.57;21.27;;;;;;;11.66;53.57;98970.17;1734932;82;25566;-71
2021/11/02 12:04:38;;;;;;;38.33;24.30;;;;;;;11.54;53.30;98968.31;1735782;82;25733;-70
2021/11/02 12:07:51;;;;;;;39.27;25.55;;;;;;;11.43;53.63;98968.62;1735570;82;25400;-72
2021/11/02 12:10:26;;;;;;;40.58;25.00;;;;;;;11.31;54.37;98959.42;1735371;81;25611;-69
2021/11/02 12:13:00;;;;;;;36.28;23.83;;;;;;;11.24;54.92;98962.48;1737578;82;29727;-68
2021/11/02 12:15:59;;;;;;;34.23;24.92;;;;;;;11.19;54.83;98962.19;1738173;82;25408;-69
2021/11/02 12:18:23;;;;;;;35.00;24.67;;;;;;;11.17;55.39;98966.59;1737712;82;25437;-70
2021/11/02 12:20:52;;;;;;;40.12;24.72;;;;;;;11.14;55.64;98967.85;1733851;82;25782;-69
2021/11/02 12:23:37;;;;;;;38.28;24.63;;;;;;;11.08;55.99;98966.52;1738332;82;25590;-69
2021/11/02 12:26:04;;;;;;;39.00;25.65;;;;;;;11.02;55.91;98964.63;1738372;82;27466;-68
2021/11/02 12:28:41;;;;;;;37.23;25.35;;;;;;;10.97;56.65;98969.70;1738287;82;25734;-67
2021/11/02 12:31:12;;;;;;;36.30;25.88;;;;;;;10.87;56.45;98966.70;1738202;82;25583;-68
2021/11/02 12:33:47;;;;;;;44.08;27.00;;;;;;;10.76;57.06;98968.55;1738320;82;25571;-68
2021/11/02 12:36:26;;;;;;;44.15;25.82;;;;;;;10.68;56.88;98969.45;1738309;82;25612;-69
2021/11/02 12:39:06;;;;;;;42.08;26.75;;;;;;;10.60;57.28;98969.02;1738707;82;27587;-68
2021/11/02 12:41:32;;;;;;;45.23;26.65;;;;;;;10.53;57.78;98968.81;1738331;82;25654;-69
2021/11/02 12:44:09;;;;;;;42.58;26.57;;;;;;;10.44;57.58;98972.42;1737447;82;26185;-68
2021/11/02 12:46:43;;;;;;;39.27;27.05;;;;;;;10.41;57.96;98963.64;1713561;83;25664;-67
2021/11/02 12:49:19;;;;;;;39.30;25.48;;;;;;;10.37;58.03;98975.45;1712014;83;25472;-67
2021/11/02 12:51:53;;;;;;;39.95;26.25;;;;;;;10.31;58.18;98967.34;1737678;82;27410;-69
2021/11/02 12:54:25;;;;;;;41.92;28.12;;;;;;;10.27;58.26;98974.77;1714104;82;25756;-68
2021/11/02 12:56:57;;;;;;;40.83;27.50;;;;;;;10.26;58.57;98976.45;1735178;82;25599;-69
2021/11/02 12:59:34;;;;;;;44.38;27.62;;;;;;;10.23;58.75;98975.23;1738432;82;26051;-68
2021/11/02 13:02:19;;;;;;;43.65;26.77;;;;;;;10.22;58.86;98976.35;1738732;82;25649;-69
2021/11/02 13:05:17;;;;;;;37.73;26.25;;;;;;;10.21;59.43;98982.09;1738959;82;27503;-68
2021/11/02 13:07:54;;;;;;;45.12;28.42;;;;;;;10.19;59.41;98984.34;1738714;82;25591;-67
2021/11/02 13:10:22;;;;;;;42.00;26.42;;;;;;;10.14;59.93;98984.00;1734335;82;25641;-67
2021/11/02 13:12:52;;;;;;;41.13;26.97;;;;;;;10.10;59.82;98979.06;1697710;84;26042;-67
2021/11/02 13:15:21;;;;;;;44.40;27.52;;;;;;;10.10;60.24;98980.41;1704851;84;25797;-68
2021/11/02 13:17:52;;;;;;;46.60;27.55;;;;;;;10.04;60.51;98983.88;1705102;84;27549;-68
2021/11/02 13:20:36;;;;;;;44.27;27.42;;;;;;;10.06;60.38;98987.59;1705107;84;25720;-66
2021/11/02 13:23:03;;;;;;;41.70;26.77;;;;;;;10.07;60.40;98988.61;1705045;84;25428;-67
2021/11/02 13:25:42;;;;;;;43.55;28.35;;;;;;;10.05;60.70;98980.63;1705132;84;25614;-67
2021/11/02 13:28:09;;;;;;;48.15;29.32;;;;;;;10.05;60.92;98986.81;1702580;84;25796;-67
2021/11/02 13:30:42;;;;;;;46.25;27.82;;;;;;;10.04;61.22;98987.16;1704766;84;27138;-67
2021/11/02 13:33:21;;;;;;;48.20;29.67;;;;;;;10.01;61.19;98988.63;1704538;84;25702;-67
2021/11/02 13:36:02;;;;;;;52.83;28.90;;;;;;;10.00;61.48;98989.74;1704891;84;25489;-66
2021/11/02 13:38:43;;;;;;;46.40;29.07;;;;;;;9.97;61.54;98991.76;1704593;84;25571;-66
2021/11/02 13:41:23;;;;;;;54.80;31.52;;;;;;;9.93;62.35;98995.45;1705132;84;25477;-66
2021/11/02 13:43:59;;;;;;;47.43;28.83;;;;;;;9.90;61.97;98992.31;1697932;83;27474;-66
2021/11/02 13:46:29;;;;;;;49.23;30.48;;;;;;;9.86;62.43;98994.12;1695916;84;26454;-67
2021/11/02 13:48:56;;;;;;;53.55;31.82;;;;;;;9.83;62.60;98999.41;1707596;84;25753;-67
2021/11/02 13:51:24;;;;;;;53.45;33.20;;;;;;;9.77;62.57;98995.33;1707903;84;25503;-66
2021/11/02 13:53:51;;;;;;;54.53;31.80;;;;;;;9.72;63.02;98993.09;1705090;84;25626;-67
2021/11/02 13:56:29;;;;;;;58.00;33.38;;;;;;;9.66;63.22;98989.02;1707800;84;27565;-67
2021/11/02 13:58:58;;;;;;;59.77;34.70;;;;;;;9.63;63.55;98995.64;1707453;84;25484;-68
2021/11/02 14:01:35;;;;;;;55.23;32.73;;;;;;;9.56;63.94;98996.19;1708403;84;25606;-67
2021/11/02 14:04:10;;;;;;;58.92;33.20;;;;;;;9.51;64.35;99003.92;1708348;84;27638;-67
2021/11/02 14:06:44;;;;;;;58.68;33.55;;;;;;;9.46;64.94;99001.44;1707752;84;25463;-64
2021/11/02 14:09:25;;;;;;;60.63;35.68;;;;;;;9.41;64.91;99003.00;1708376;84;27494;-64
2021/11/02 14:11:51;;;;;;;59.25;35.28;;;;;;;9.38;64.67;99002.87;1708468;83;25420;-63
2021/11/02 14:14:36;;;;;;;61.00;36.03;;;;;;;9.36;65.34;99007.25;1713946;83;25388;-64
2021/11/02 14:17:21;;;;;;;64.45;35.23;;;;;;;9.33;65.18;99008.72;1713956;83;25467;-63
2021/11/02 14:19:50;;;;;;;57.50;35.38;;;;;;;9.29;65.41;98999.69;1714016;83;25528;-63
2021/11/02 14:22:52;;;;;;;57.27;35.15;;;;;;;9.25;65.51;99000.70;1714148;83;27648;-65
2021/11/02 14:25:22;;;;;;;59.55;34.98;;;;;;;9.19;65.36;98994.70;1713849;83;25650;-65
2021/11/02 14:27:52;;;;;;;59.85;34.80;;;;;;;9.16;65.48;99000.22;1708342;83;25682;-65
2021/11/02 14:30:35;;;;;;;60.30;35.03;;;;;;;9.15;65.63;98993.80;1713903;83;25672;-64
2021/11/02 14:33:05;;;;;;;56.58;34.50;;;;;;;9.11;65.38;98995.02;1714042;83;25515;-65
2021/11/02 14:35:59;;;;;;;58.95;34.80;;;;;;;9.08;65.48;98998.95;1713939;83;27587;-64
2021/11/02 14:38:46;;;;;;;62.25;35.48;;;;;;;9.04;65.47;98998.82;1713825;83;25543;-64
2021/11/02 14:41:34;;;;;;;62.50;35.45;;;;;;;8.99;65.58;99003.06;1712855;83;25454;-64
2021/11/02 14:44:16;;;;;;;63.98;37.45;;;;;;;8.97;65.62;99002.58;1713936;83;25577;-63
2021/11/02 14:47:00;;;;;;;60.50;35.20;;;;;;;8.92;65.79;99008.17;1718667;82;25699;-64
2021/11/02 14:49:37;;;;;;;57.13;35.05;;;;;;;8.86;65.93;99008.94;1714756;82;27600;-64
2021/11/02 14:52:07;;;;;;;58.23;36.15;;;;;;;8.76;66.03;99004.72;1711923;83;25692;-66
2021/11/02 14:54:39;;;;;;;61.53;36.33;;;;;;;8.73;66.18;99009.98;1680609;85;25618;-65
2021/11/02 14:57:27;;;;;;;59.38;35.17;;;;;;;8.70;66.67;99011.97;1682456;84;26204;-65
2021/11/02 15:00:02;;;;;;;59.75;35.23;;;;;;;8.62;67.36;99015.54;1680848;85;25427;-65
2021/11/02 15:02:42;;;;;;;63.15;37.28;;;;;;;8.55;66.48;99008.75;1680318;85;27504;-65
2021/11/02 15:05:16;;;;;;;66.50;37.67;;;;;;;8.51;66.96;99014.57;1652956;86;25485;-64
2021/11/02 15:07:50;;;;;;;62.70;36.35;;;;;;;8.48;66.95;99005.78;1678293;85;25581;-65
2021/11/02 15:10:20;;;;;;;64.95;36.38;;;;;;;8.49;67.00;99011.39;1688653;84;25666;-65
2021/11/02 15:12:52;;;;;;;64.10;37.30;;;;;;;8.47;66.89;99004.76;1682897;84;25737;-65
2021/11/02 15:15:17;;;;;;;71.90;39.95;;;;;;;8.45;67.28;99009.13;1704827;84;27505;-64
2021/11/02 15:17:46;;;;;;;76.25;41.15;;;;;;;8.39;66.89;99004.46;1705759;84;25581;-64
2021/11/02 15:20:12;;;;;;;73.12;40.38;;;;;;;8.37;67.07;99005.31;1705305;84;25430;-62
2021/11/02 15:22:39;;;;;;;71.67;40.52;;;;;;;8.32;66.93;99007.42;1677080;84;25664;-64
2021/11/02 15:25:07;;;;;;;70.25;39.53;;;;;;;8.31;67.07;99003.13;1705273;84;25567;-65
2021/11/02 15:27:37;;;;;;;65.72;38.08;;;;;;;8.28;67.06;99008.63;1703749;84;27519;-66
2021/11/02 15:30:11;;;;;;;;;;;;;;;8.18;66.92;98996.31;1707418;84;25565;-67
2021/11/02 15:32:42;;;;;;;63.68;38.28;;;;;;;8.12;67.24;99002.20;1705168;84;25509;-64
2021/11/02 15:35:13;;;;;;;71.95;38.92;;;;;;;8.01;67.56;98999.86;1704483;84;25679;-65
2021/11/02 15:37:47;;;;;;;74.55;40.85;;;;;;;7.93;67.45;99007.98;1705143;84;25593;-66
2021/11/02 15:40:21;;;;;;;69.65;38.30;;;;;;;7.89;67.85;99017.83;1703948;84;27448;-65
2021/11/02 15:42:52;;;;;;;79.35;41.77;;;;;;;7.83;67.87;99010.45;1685091;84;25695;-68
2021/11/02 15:45:33;;;;;;;77.10;42.90;;;;;;;7.80;67.98;99017.85;1728223;83;25742;-66
2021/11/02 15:48:17;;;;;;;75.20;41.48;;;;;;;7.77;68.04;99011.77;1727881;82;25658;-68
2021/11/02 15:50:48;;;;;;;73.35;39.55;;;;;;;7.74;68.34;99017.78;1728160;83;25472;-67
2021/11/02 15:53:21;;;;;;;76.40;41.40;;;;;;;7.70;68.33;99010.13;1728111;83;27654;-67
2021/11/02 15:55:47;;;;;;;76.07;42.05;;;;;;;7.67;68.42;99012.89;1727926;83;25516;-66
2021/11/02 15:58:16;;;;;;;77.75;43.15;;;;;;;7.63;68.48;99011.95;1728181;83;25574;-68
2021/11/02 16:00:45;;;;;;;78.67;42.20;;;;;;;7.60;68.69;99018.75;1728371;83;25656;-64
2021/11/02 16:03:13;;;;;;;80.53;42.00;;;;;;;7.56;68.72;99017.02;1727902;82;25776;-67
2021/11/02 16:05:42;;;;;;;79.42;41.92;;;;;;;7.55;69.12;99014.89;1728133;83;27490;-66
2021/11/02 16:08:22;;;;;;;77.35;42.88;;;;;;;7.53;68.75;99022.50;1728203;83;25633;-66
2021/11/02 16:11:06;;;;;;;83.27;45.35;;;;;;;7.55;68.99;99021.61;1726217;83;26353;-66
2021/11/02 16:13:32;;;;;;;86.25;44.00;;;;;;;7.49;69.02;99012.12;1723893;83;27639;-66
2021/11/02 16:16:01;;;;;;;82.92;43.80;;;;;;;7.44;69.48;99010.94;1718631;83;25631;-66
2021/11/02 16:18:32;;;;;;;92.67;44.58;;;;;;;7.39;69.31;99009.77;1719004;83;27645;-66
2021/11/02 16:21:02;;;;;;;89.22;45.65;;;;;;;7.37;69.44;99016.02;1718974;83;25630;-66
2021/11/02 16:23:46;;;;;;;87.85;44.30;;;;;;;7.34;69.65;99011.27;1719147;83;25510;-64
2021/11/02 16:26:23;;;;;;;85.20;44.38;;;;;;;7.31;69.76;99005.20;1718606;83;27641;-65
2021/11/02 16:28:51;;;;;;;89.00;46.18;;;;;;;7.35;69.86;99011.52;1719373;82;25678;-64
2021/11/02 16:31:29;;;;;;;90.12;45.03;;;;;;;7.34;69.99;99012.08;1719010;83;28170;-65
2021/11/02 16:33:58;;;;;;;89.40;46.93;;;;;;;7.34;69.95;99016.12;1719421;83;25515;-65
2021/11/02 16:36:29;;;;;;;85.15;45.45;;;;;;;7.32;70.48;99008.92;1719246;83;25555;-64
2021/11/02 16:38:58;;;;;;;97.17;46.95;;;;;;;7.28;70.14;99015.47;1718962;83;25630;-65
2021/11/02 16:41:43;;;;;;;;;;;;;;;7.31;70.32;99018.66;1721850;83;25606;-65
2021/11/02 16:44:18;;;;;;;90.80;46.70;;;;;;;7.32;70.53;99019.69;1719300;83;27622;-65
2021/11/02 16:46:51;;;;;;;92.33;48.52;;;;;;;7.28;70.57;99016.81;1691649;84;25693;-66